首页
METAR-TAF:

METAR-TAF

机场 :

Devils Lake, 北达科他州, 美国

纬度: 48-07N, 经度: 098-55W, 海拔: 443米

当前天气观测

该预报发布于1小时和2分钟前的19:56 UTC
风速15节,风向西转西北,有时为25节阵风
温度 25°C
湿度 36%
气压 1011 hPa
能見度: 16.1公里
天空无云

METAR: KDVL 251956Z AUTO 30015G25KT 10SM CLR 25/09 A2986 RMK AO2 PK WND 29027/1917 SLP111 T02500089

时间: 15:58 (20:58 UTC)

预报

该预报发布于3小时和38分钟前的17:20 UTC
预报有效从25日的 18点(UTC)到 26日的 18点(UTC)
风速19节,风向西转西北,有时为25节阵风
能見度: 10公里
天空无云
从 26日的 0400点(UTC)
风速12节,风向
能見度: 10公里
多云层高于10000英尺
从 26日的 0700点(UTC)
风速11节,风向
能見度: 10公里
多云层高于5000英尺
从 26日的 0900点(UTC)
风速11节,风向
能見度: 10公里
多云层高于2000英尺
从 26日的 1300点(UTC)
风速10节,风向
能見度: 10公里
多云层高于3000英尺

TAF: KDVL 251720Z 2518/2618 29019G25KT P6SM SKC FM260400 35012KT P6SM BKN100 FM260700 35011KT P6SM BKN050 FM260900 36011KT P6SM BKN020 FM261300 36010KT P6SM BKN030

超过4000个机场的气象观测和天气预报(METAR&TAF报告)。

可查询的气象台以黄色和红色小点在地图上表示。

将鼠标移到小点上方,可查看气象台名称。

然后点击查看天气观测和预报。

如需切换地图:点击带黑十字的绿色按钮放大地图;点击带横线的绿色按钮缩小地图;或者点击绿色箭头查看邻近地区的地图。


METAR-TAF: